Time;durP1;ratioP1;P1;durP2;ratioP2;P2;SDS_P1;SDS_P2;PMS_P1;PMS_P2;Temp;Humidity;BMP_temperature;BMP_pressure;BME280_temperature;BME280_humidity;BME280_pressure;Samples;Min_cycle;Max_cycle;Signal;HPM_P1;HPM_P2
2022/01/16 00:00:03;;;;;;;0.30;0.30;;;;;;;3.03;61.55;99883.34;5107665;28;20092;-73
2022/01/16 00:05:12;;;;;;;0.20;0.20;;;;;;;2.99;59.97;99880.31;5091367;28;20043;-72
2022/01/16 00:07:38;;;;;;;0.22;0.22;;;;;;;2.93;60.87;99857.34;5090725;28;20040;-73
2022/01/16 00:10:04;;;;;;;0.00;0.00;;;;;;;2.94;60.75;99874.00;5091515;28;20089;-73
2022/01/16 00:12:29;;;;;;;0.00;0.00;;;;;;;2.90;61.38;99880.72;5090064;28;20479;-72
2022/01/16 00:14:55;;;;;;;0.00;0.00;;;;;;;2.84;61.63;99890.28;5091572;28;20506;-72
2022/01/16 00:17:23;;;;;;;0.00;0.00;;;;;;;2.78;61.85;99888.44;5111098;28;20034;-72
2022/01/16 00:19:48;;;;;;;0.00;0.00;;;;;;;2.84;61.51;99908.78;5110458;28;20035;-73
2022/01/16 00:22:15;;;;;;;2.42;2.25;;;;;;;2.74;61.60;99903.09;5111755;28;20405;-72
2022/01/16 00:24:41;;;;;;;0.00;0.00;;;;;;;2.74;62.07;99919.75;5111551;28;20112;-72
2022/01/16 00:27:07;;;;;;;0.00;0.00;;;;;;;2.76;62.62;99940.66;5111753;28;20158;-73
2022/01/16 00:29:32;;;;;;;0.00;0.00;;;;;;;2.59;62.54;99942.88;5103195;28;20026;-72
2022/01/16 00:31:58;;;;;;;0.00;0.00;;;;;;;2.58;63.01;99986.16;5095884;28;20494;-72
2022/01/16 00:34:23;;;;;;;0.00;0.00;;;;;;;2.59;62.99;100033.50;5091314;28;20032;-72
2022/01/16 00:36:49;;;;;;;0.00;0.00;;;;;;;2.60;62.77;100044.88;5100478;28;20027;-72
2022/01/16 00:39:15;;;;;;;0.03;0.03;;;;;;;2.63;62.10;100012.78;5111591;28;20034;-72
2022/01/16 00:41:40;;;;;;;0.35;0.35;;;;;;;2.64;62.58;99951.84;5111414;28;20478;-73
2022/01/16 00:44:06;;;;;;;0.03;0.03;;;;;;;2.52;61.81;99871.59;5109641;28;20418;-72
2022/01/16 00:46:32;;;;;;;0.10;0.10;;;;;;;2.61;62.16;99783.22;5093569;28;20059;-72
2022/01/16 00:48:57;;;;;;;0.00;0.00;;;;;;;2.47;62.92;99748.09;5091137;28;20082;-72
2022/01/16 00:51:23;;;;;;;0.10;0.10;;;;;;;2.45;63.13;99768.59;5090731;28;20031;-72
2022/01/16 00:53:49;;;;;;;0.93;0.93;;;;;;;2.11;63.16;99724.78;5089512;28;20283;-71
2022/01/16 00:56:14;;;;;;;0.00;0.00;;;;;;;2.23;63.54;99787.31;5091302;28;20043;-72
2022/01/16 00:58:40;;;;;;;0.00;0.00;;;;;;;2.26;63.70;99809.00;5091773;28;20118;-72
2022/01/16 01:01:06;;;;;;;0.05;0.05;;;;;;;2.23;63.85;99811.06;5093510;28;20035;-73
2022/01/16 01:03:31;;;;;;;0.13;0.13;;;;;;;2.25;64.08;99855.72;5090817;28;20077;-73
2022/01/16 01:05:57;;;;;;;0.10;0.10;;;;;;;2.14;64.50;99872.16;5095061;28;20486;-70
2022/01/16 01:08:23;;;;;;;0.68;0.68;;;;;;;2.21;64.44;99904.63;5109544;28;20499;-73
2022/01/16 01:10:51;;;;;;;0.20;0.20;;;;;;;2.21;64.43;99929.22;5111350;28;20084;-75
2022/01/16 01:16:04;;;;;;;0.00;0.00;;;;;;;2.16;63.70;99907.06;5094406;28;20036;-73
2022/01/16 01:18:34;;;;;;;0.00;0.00;;;;;;;2.19;63.92;99896.13;5100722;28;20027;-72
2022/01/16 01:21:03;;;;;;;0.00;0.00;;;;;;;2.12;63.88;99882.09;5103678;28;20058;-73
2022/01/16 01:23:29;;;;;;;0.00;0.00;;;;;;;2.18;63.61;99903.19;5109800;28;20059;-73
2022/01/16 01:25:55;;;;;;;0.15;0.15;;;;;;;2.20;63.46;99905.66;5107967;28;20034;-74
2022/01/16 01:28:21;;;;;;;0.00;0.00;;;;;;;2.23;63.28;99902.59;5109853;28;20020;-74
2022/01/16 01:30:46;;;;;;;0.10;0.10;;;;;;;2.26;63.43;99904.03;5095872;28;20131;-74
2022/01/16 01:33:14;;;;;;;0.00;0.00;;;;;;;2.22;62.58;99895.69;5090607;28;20460;-73
2022/01/16 01:35:40;;;;;;;0.00;0.00;;;;;;;2.31;62.88;99925.38;5090593;28;20024;-74
2022/01/16 01:38:08;;;;;;;0.00;0.00;;;;;;;2.30;62.96;99926.41;5106667;28;20505;-75
2022/01/16 01:40:34;;;;;;;0.00;0.00;;;;;;;2.26;62.93;99923.34;5109481;28;20387;-74
2022/01/16 01:51:12;;;;;;;0.00;0.00;;;;;;;2.31;62.51;99947.31;5105691;28;20035;-73
2022/01/16 01:53:39;;;;;;;0.00;0.00;;;;;;;2.36;62.14;99949.34;5090208;28;20052;-73
2022/01/16 01:56:06;;;;;;;0.00;0.00;;;;;;;2.28;62.13;99947.69;5093564;28;20032;-71
2022/01/16 01:58:32;;;;;;;0.00;0.00;;;;;;;2.31;62.04;99962.34;5093789;28;20028;-73
2022/01/16 02:00:58;;;;;;;0.00;0.00;;;;;;;2.35;62.12;99959.06;5104603;28;20120;-71
2022/01/16 02:06:09;;;;;;;0.00;0.00;;;;;;;2.31;62.34;99968.41;5094067;28;20028;-71
2022/01/16 02:08:35;;;;;;;0.85;0.85;;;;;;;2.27;61.67;99954.00;5093501;28;20035;-72
2022/01/16 02:11:02;;;;;;;0.00;0.00;;;;;;;2.24;62.63;99959.66;5094000;28;20474;-74
2022/01/16 02:13:32;;;;;;;0.13;0.13;;;;;;;2.19;63.12;99957.63;5092479;28;20034;-75
2022/01/16 02:37:02;;;;;;;0.00;0.00;;;;;;;2.22;62.05;99930.84;5113164;28;20115;-75
2022/01/16 02:39:31;;;;;;;0.00;0.00;;;;;;;2.28;61.55;99917.84;5113549;28;20106;-73
2022/01/16 02:41:58;;;;;;;0.05;0.05;;;;;;;2.26;61.74;99935.69;5112454;28;20039;-73
2022/01/16 02:46:53;;;;;;;;;;;;;;;2.28;61.33;99946.88;5113191;28;20028;-74
2022/01/16 02:49:20;;;;;;;0.40;0.40;;;;;;;2.31;61.28;99947.31;5093013;28;19908;-74
2022/01/16 02:51:46;;;;;;;0.03;0.03;;;;;;;2.22;61.07;99925.56;5111831;28;20050;-73
2022/01/16 02:54:11;;;;;;;0.00;0.00;;;;;;;2.31;61.08;99941.22;5113575;28;20526;-73
2022/01/16 02:56:39;;;;;;;0.05;0.05;;;;;;;2.30;60.40;99943.03;5109211;28;20051;-73
2022/01/16 02:59:04;;;;;;;0.00;0.00;;;;;;;2.33;60.68;99944.47;5091619;28;20030;-73
2022/01/16 03:01:29;;;;;;;0.00;0.00;;;;;;;2.35;60.48;99942.44;5092839;28;20452;-73
2022/01/16 03:03:55;;;;;;;2.55;1.25;;;;;;;2.20;59.79;99922.31;5091413;28;20024;-74
2022/01/16 03:06:25;;;;;;;1.80;0.82;;;;;;;2.25;60.75;99937.53;5090390;28;20039;-74
2022/01/16 03:08:50;;;;;;;0.00;0.00;;;;;;;2.24;60.93;99931.44;5092652;28;20024;-75
2022/01/16 03:11:34;;;;;;;0.20;0.20;;;;;;;2.25;61.02;99937.53;5092556;28;20046;-75
2022/01/16 03:14:03;;;;;;;0.00;0.00;;;;;;;2.12;61.65;99916.41;5093905;28;20463;-75
2022/01/16 03:16:29;;;;;;;0.00;0.00;;;;;;;2.15;61.40;99931.81;5091149;28;20028;-75
2022/01/16 03:21:54;;;;;;;0.00;0.00;;;;;;;2.13;62.33;99944.41;5092452;28;20097;-74
2022/01/16 03:24:25;;;;;;;0.00;0.00;;;;;;;2.07;63.05;99946.00;5092644;28;20035;-75
2022/01/16 03:26:59;;;;;;;0.00;0.00;;;;;;;2.11;62.30;99943.78;5090900;28;20036;-74
2022/01/16 03:29:26;;;;;;;0.00;0.00;;;;;;;2.08;62.85;99951.06;5096135;28;20153;-74
2022/01/16 03:31:52;;;;;;;0.00;0.00;;;;;;;1.98;62.54;99936.63;5104728;28;20031;-74
2022/01/16 03:34:18;;;;;;;0.00;0.00;;;;;;;1.99;63.01;99954.09;5101401;28;20403;-74
2022/01/16 03:36:44;;;;;;;0.00;0.00;;;;;;;2.03;62.13;99952.69;5099501;28;20036;-74
2022/01/16 03:39:09;;;;;;;0.13;0.13;;;;;;;2.01;62.81;99960.78;5092162;28;20028;-77
2022/01/16 03:41:36;;;;;;;0.30;0.30;;;;;;;1.98;62.79;99949.81;5091821;28;20114;-76
2022/01/16 03:44:03;;;;;;;0.00;0.00;;;;;;;2.02;62.81;99958.97;5092169;28;20092;-76
2022/01/16 03:46:34;;;;;;;8.38;3.42;;;;;;;2.00;62.63;99950.44;5090376;28;20411;-75
2022/01/16 03:49:10;;;;;;;0.00;0.00;;;;;;;1.98;62.47;99957.72;5100662;28;20023;-74
2022/01/16 03:51:36;;;;;;;0.35;0.28;;;;;;;2.03;62.55;99968.53;5110696;28;20490;-74
2022/01/16 03:54:03;;;;;;;0.77;0.77;;;;;;;1.95;62.22;99958.13;5112422;28;20035;-75
2022/01/16 03:56:29;;;;;;;0.00;0.00;;;;;;;1.94;62.41;99959.94;5112022;28;20035;-74
2022/01/16 03:58:55;;;;;;;0.00;0.00;;;;;;;1.98;62.87;99974.38;5110191;28;20028;-75
2022/01/16 04:01:20;;;;;;;0.00;0.00;;;;;;;2.03;62.57;99987.81;5110530;28;20036;-75
2022/01/16 04:03:46;;;;;;;0.00;0.00;;;;;;;2.07;62.50;99983.75;5106496;28;20023;-75
2022/01/16 04:06:11;;;;;;;0.20;0.20;;;;;;;2.03;62.58;99974.59;5092557;28;20056;-74
2022/01/16 04:08:37;;;;;;;0.00;0.00;;;;;;;2.03;62.33;99976.44;5111616;28;20107;-72
2022/01/16 04:11:03;;;;;;;0.00;0.00;;;;;;;2.03;62.20;99981.72;5111740;28;20038;-74
2022/01/16 04:13:31;;;;;;;0.00;0.00;;;;;;;2.11;62.40;99999.19;5112288;28;20059;-74
2022/01/16 04:15:56;;;;;;;0.00;0.00;;;;;;;2.05;61.76;99991.06;5099982;28;20051;-72
2022/01/16 04:18:21;;;;;;;0.20;0.20;;;;;;;2.07;61.83;100004.84;5111141;28;20491;-72
2022/01/16 04:20:47;;;;;;;0.00;0.00;;;;;;;2.08;61.57;100000.41;5100831;28;20078;-72
2022/01/16 04:23:12;;;;;;;0.00;0.00;;;;;;;2.05;61.89;100001.63;5091237;28;20095;-75
2022/01/16 04:25:38;;;;;;;0.00;0.00;;;;;;;1.95;62.41;100003.00;5090017;28;20084;-73
2022/01/16 04:28:04;;;;;;;0.10;0.10;;;;;;;1.97;62.06;99999.13;5091421;28;20491;-73
2022/01/16 04:30:30;;;;;;;0.00;0.00;;;;;;;1.74;61.98;99967.78;5095111;28;20051;-73
2022/01/16 04:32:55;;;;;;;0.00;0.00;;;;;;;1.95;62.19;99995.88;5110929;28;20065;-74
2022/01/16 04:35:21;;;;;;;0.00;0.00;;;;;;;1.74;62.22;99968.59;5111444;28;20020;-73
2022/01/16 04:37:47;;;;;;;0.00;0.00;;;;;;;1.91;61.94;99997.28;5111061;28;20020;-73
2022/01/16 04:40:13;;;;;;;0.00;0.00;;;;;;;1.97;62.48;100009.69;5111938;28;20066;-72
2022/01/16 04:45:23;;;;;;;0.00;0.00;;;;;;;1.88;61.72;100011.69;5092812;28;20517;-74
2022/01/16 04:47:50;;;;;;;0.00;0.00;;;;;;;1.96;61.87;100021.25;5090522;28;20028;-73
2022/01/16 04:50:15;;;;;;;0.00;0.00;;;;;;;1.67;61.40;99978.31;5096352;28;20035;-72
2022/01/16 04:52:45;;;;;;;0.00;0.00;;;;;;;1.87;61.39;100014.53;5103055;28;20052;-71
2022/01/16 04:55:13;;;;;;;0.00;0.00;;;;;;;1.79;61.99;99999.66;5091206;28;20116;-74
2022/01/16 04:57:39;;;;;;;0.00;0.00;;;;;;;1.85;61.85;100013.91;5091011;28;20060;-72
2022/01/16 05:00:08;;;;;;;0.03;0.03;;;;;;;1.77;61.63;100012.25;5090987;28;20058;-71
2022/01/16 05:02:33;;;;;;;;;;;;;;;1.84;62.17;100033.38;5091633;28;20110;-73
2022/01/16 05:04:59;;;;;;;0.00;0.00;;;;;;;1.74;62.24;100023.97;5090574;28;20359;-72
2022/01/16 05:07:24;;;;;;;0.00;0.00;;;;;;;1.72;63.06;100039.19;5089820;28;20028;-73
2022/01/16 05:09:50;;;;;;;0.00;0.00;;;;;;;1.66;62.99;100016.22;5099294;28;20110;-72
2022/01/16 05:12:25;;;;;;;0.00;0.00;;;;;;;1.63;62.96;100019.25;5105491;28;20028;-71
2022/01/16 05:17:34;;;;;;;0.00;0.00;;;;;;;1.52;62.99;100007.41;5105742;28;20038;-72
2022/01/16 05:19:59;;;;;;;0.00;0.00;;;;;;;1.49;63.33;100005.16;5109015;28;20028;-73
2022/01/16 05:22:25;;;;;;;0.00;0.00;;;;;;;1.58;63.77;100027.72;5090889;28;20156;-73
2022/01/16 05:24:50;;;;;;;0.00;0.00;;;;;;;1.28;63.92;99991.03;5090693;28;20110;-72
2022/01/16 05:27:16;;;;;;;0.22;0.22;;;;;;;1.29;64.19;100005.00;5091106;28;20036;-71
2022/01/16 05:29:41;;;;;;;0.00;0.00;;;;;;;1.30;64.39;100033.00;5096291;28;20100;-71
2022/01/16 05:32:07;;;;;;;0.20;0.20;;;;;;;1.32;65.07;100038.06;5111394;28;20035;-72
2022/01/16 05:34:32;;;;;;;8.82;1.63;;;;;;;1.29;64.65;100036.63;5094661;28;20021;-71
2022/01/16 05:36:58;;;;;;;0.00;0.00;;;;;;;1.24;64.68;100039.03;5094357;28;20520;-71
2022/01/16 05:39:23;;;;;;;0.00;0.00;;;;;;;1.21;65.12;100052.56;5093059;28;20032;-71
2022/01/16 05:41:49;;;;;;;0.00;0.00;;;;;;;1.14;65.06;100034.06;5108885;28;20035;-72
2022/01/16 05:44:14;;;;;;;0.00;0.00;;;;;;;1.13;65.01;100034.28;5114866;28;20081;-71
2022/01/16 05:46:39;;;;;;;0.13;0.13;;;;;;;1.09;65.30;100032.00;5108337;28;20125;-71
2022/01/16 05:49:05;;;;;;;0.00;0.00;;;;;;;1.10;65.39;100046.81;5094466;28;20028;-71
2022/01/16 05:51:30;;;;;;;0.10;0.10;;;;;;;1.04;65.69;100044.94;5094183;28;20028;-71
2022/01/16 05:53:57;;;;;;;0.00;0.00;;;;;;;1.02;66.15;100051.41;5094248;28;20059;-71
2022/01/16 05:56:22;;;;;;;0.10;0.10;;;;;;;1.02;66.81;100068.00;5098033;28;20038;-72
2022/01/16 05:58:48;;;;;;;0.38;0.30;;;;;;;1.01;66.15;100066.38;5092445;28;20024;-71
2022/01/16 06:01:14;;;;;;;0.05;0.05;;;;;;;0.97;66.23;100048.53;5094121;28;20038;-71
2022/01/16 06:03:39;;;;;;;0.00;0.00;;;;;;;0.99;66.20;100067.56;5092627;28;20024;-73
2022/01/16 06:06:05;;;;;;;0.25;0.25;;;;;;;1.06;66.06;100069.28;5093638;28;20483;-71
2022/01/16 06:08:30;;;;;;;0.10;0.10;;;;;;;1.15;66.29;100082.31;5093672;28;20059;-72
2022/01/16 06:10:55;;;;;;;0.00;0.00;;;;;;;1.20;65.88;100070.22;5091991;28;20185;-70
2022/01/16 06:13:21;;;;;;;0.00;0.00;;;;;;;1.24;66.07;100066.19;5093518;28;20024;-74
2022/01/16 06:15:46;;;;;;;0.00;0.00;;;;;;;1.27;66.17;100065.00;5093483;28;20032;-72
2022/01/16 06:18:13;;;;;;;0.00;0.00;;;;;;;1.33;66.39;100066.88;5113809;28;20028;-73
2022/01/16 06:20:40;;;;;;;0.00;0.00;;;;;;;1.47;65.94;100082.81;5114231;28;20084;-74
2022/01/16 06:23:06;;;;;;;0.00;0.00;;;;;;;1.51;66.55;100089.31;5110536;28;20027;-73
2022/01/16 06:25:31;;;;;;;0.00;0.00;;;;;;;1.51;65.68;100092.75;5103038;28;20031;-73
2022/01/16 06:27:57;;;;;;;0.00;0.00;;;;;;;1.61;65.74;100081.88;5113815;28;20035;-73
2022/01/16 06:30:22;;;;;;;0.52;0.35;;;;;;;1.71;65.41;100087.66;5113653;28;20024;-73
2022/01/16 06:32:47;;;;;;;0.00;0.00;;;;;;;1.78;65.18;100095.59;5112369;28;20035;-74
2022/01/16 06:35:14;;;;;;;0.05;0.05;;;;;;;2.00;65.65;100125.41;5113820;28;20030;-74
2022/01/16 06:37:40;;;;;;;0.00;0.00;;;;;;;2.05;64.72;100132.72;5093516;28;20101;-72
2022/01/16 06:40:07;;;;;;;0.00;0.00;;;;;;;2.12;64.68;100114.31;5091845;28;20464;-71
2022/01/16 06:42:33;;;;;;;0.00;0.00;;;;;;;2.17;64.39;100130.38;5093501;28;20100;-72
2022/01/16 06:44:58;;;;;;;0.20;0.20;;;;;;;2.21;64.24;100131.59;5093491;28;20032;-72
2022/01/16 06:47:23;;;;;;;0.00;0.00;;;;;;;2.19;64.65;100112.53;5093249;28;20411;-73
2022/01/16 06:49:49;;;;;;;0.00;0.00;;;;;;;2.32;64.99;100124.97;5104373;28;20027;-70
2022/01/16 06:52:15;;;;;;;0.75;0.75;;;;;;;2.38;64.42;100125.03;5113510;28;20056;-75
2022/01/16 06:54:40;;;;;;;2.83;1.42;;;;;;;2.34;63.90;100109.75;5112149;28;20035;-75
2022/01/16 06:57:06;;;;;;;0.35;0.35;;;;;;;2.46;63.61;100133.78;5112990;28;20555;-76
2022/01/16 06:59:34;;;;;;;0.43;0.43;;;;;;;2.48;63.74;100124.66;5105589;28;20047;-74
2022/01/16 07:01:59;;;;;;;1.00;1.00;;;;;;;2.55;63.32;100130.78;5104016;28;20023;-74
2022/01/16 07:04:26;;;;;;;0.15;0.15;;;;;;;2.62;64.19;100138.72;5104718;28;20030;-73
2022/01/16 07:06:51;;;;;;;0.00;0.00;;;;;;;2.68;64.57;100135.28;5092911;28;20042;-76
2022/01/16 07:09:17;;;;;;;0.10;0.10;;;;;;;2.77;64.66;100138.59;5091541;28;20032;-76
2022/01/16 07:11:43;;;;;;;0.25;0.25;;;;;;;2.91;64.14;100151.88;5091205;28;20132;-71
2022/01/16 07:14:08;;;;;;;0.98;0.98;;;;;;;2.92;64.47;100141.09;5091486;28;20031;-75
2022/01/16 07:16:34;;;;;;;0.63;0.63;;;;;;;3.10;64.51;100161.69;5092595;28;20032;-75
2022/01/16 07:18:59;;;;;;;0.10;0.10;;;;;;;3.23;63.42;100162.72;5090967;28;20039;-76
2022/01/16 07:21:25;;;;;;;0.00;0.00;;;;;;;3.29;63.26;100164.56;5091284;28;20498;-76
2022/01/16 07:23:50;;;;;;;0.00;0.00;;;;;;;3.38;63.04;100166.00;5090921;28;20505;-75
2022/01/16 07:26:17;;;;;;;0.20;0.20;;;;;;;3.43;63.03;100158.28;5119968;27;20043;-76
2022/01/16 07:28:42;;;;;;;0.10;0.10;;;;;;;3.53;63.04;100164.00;5132014;27;20031;-73
2022/01/16 07:31:08;;;;;;;0.08;0.08;;;;;;;3.57;61.64;100167.06;5132969;27;20034;-76
2022/01/16 07:33:33;;;;;;;0.10;0.10;;;;;;;3.57;61.30;100163.59;5133267;27;20107;-75
2022/01/16 07:35:59;;;;;;;1.10;1.05;;;;;;;3.63;61.94;100178.66;5131752;27;20029;-74
2022/01/16 07:38:24;;;;;;;1.35;1.25;;;;;;;3.66;60.87;100173.78;5121032;27;20219;-73
2022/01/16 07:40:50;;;;;;;0.38;0.38;;;;;;;3.72;59.99;100166.84;5113243;27;20061;-74
2022/01/16 07:43:15;;;;;;;0.05;0.05;;;;;;;3.82;59.49;100179.69;5130555;27;20458;-73
2022/01/16 07:45:41;;;;;;;0.30;0.30;;;;;;;3.94;59.32;100179.88;5132690;27;20033;-74
2022/01/16 07:48:07;;;;;;;0.00;0.00;;;;;;;3.95;59.34;100179.69;5118609;27;20051;-73
2022/01/16 07:50:33;;;;;;;0.38;0.38;;;;;;;4.05;58.37;100184.56;5111068;28;20031;-73
2022/01/16 07:52:58;;;;;;;0.10;0.10;;;;;;;4.01;58.36;100162.97;5111451;28;20075;-74
2022/01/16 07:55:26;;;;;;;0.00;0.00;;;;;;;4.13;58.08;100178.25;5110961;28;20457;-72
2022/01/16 07:57:53;;;;;;;0.22;0.22;;;;;;;4.18;57.89;100186.41;5111966;27;20059;-71
2022/01/16 08:00:20;;;;;;;2.28;2.08;;;;;;;4.23;57.47;100193.72;5106395;28;20031;-73
2022/01/16 08:02:46;;;;;;;0.00;0.00;;;;;;;4.29;57.25;100201.66;5110578;28;20058;-73
2022/01/16 08:05:11;;;;;;;0.10;0.10;;;;;;;4.31;57.25;100199.63;5112044;28;20063;-74
2022/01/16 08:07:37;;;;;;;0.00;0.00;;;;;;;4.25;56.77;100186.41;5110773;28;20035;-74
2022/01/16 08:10:03;;;;;;;0.00;0.00;;;;;;;4.28;57.00;100185.97;5111521;28;20034;-74
2022/01/16 08:12:28;;;;;;;0.45;0.45;;;;;;;4.38;56.75;100188.19;5110696;28;20089;-74
2022/01/16 08:14:54;;;;;;;0.88;0.80;;;;;;;4.33;56.28;100189.66;5111752;28;20110;-73
2022/01/16 08:17:19;;;;;;;0.10;0.10;;;;;;;4.18;55.75;100161.75;5113016;27;20030;-70
2022/01/16 08:19:45;;;;;;;0.40;0.40;;;;;;;4.39;56.52;100171.28;5132462;27;20031;-75
2022/01/16 08:22:10;;;;;;;0.20;0.20;;;;;;;4.32;55.75;100171.28;5130842;27;20034;-76
2022/01/16 08:24:36;;;;;;;0.00;0.00;;;;;;;4.39;56.40;100164.16;5130668;27;20034;-74
2022/01/16 08:27:02;;;;;;;0.00;0.00;;;;;;;4.42;55.22;100168.22;5119317;27;20032;-70
2022/01/16 08:29:27;;;;;;;0.00;0.00;;;;;;;4.50;55.45;100181.25;5091297;28;20058;-71
2022/01/16 08:31:52;;;;;;;0.00;0.00;;;;;;;4.47;55.43;100177.19;5091254;28;20118;-72
2022/01/16 08:34:18;;;;;;;0.25;0.25;;;;;;;4.51;55.90;100177.56;5092692;28;20024;-73
2022/01/16 08:36:43;;;;;;;0.00;0.00;;;;;;;4.54;56.14;100165.75;5111765;28;20039;-72
2022/01/16 08:39:09;;;;;;;0.17;0.17;;;;;;;4.55;56.29;100151.47;5111389;28;20030;-72
2022/01/16 08:41:37;;;;;;;0.00;0.00;;;;;;;4.56;56.29;100151.25;5111381;28;20443;-71
2022/01/16 08:44:04;;;;;;;0.00;0.00;;;;;;;4.68;56.49;100171.84;5109174;28;20028;-72
2022/01/16 08:46:29;;;;;;;0.35;0.35;;;;;;;4.65;56.22;100157.13;5111486;28;20476;-71
2022/01/16 08:48:55;;;;;;;0.00;0.00;;;;;;;4.74;56.31;100157.75;5110938;28;20038;-72
2022/01/16 08:51:21;;;;;;;0.00;0.00;;;;;;;4.69;55.97;100142.47;5110940;28;20545;-73
2022/01/16 08:53:46;;;;;;;0.00;0.00;;;;;;;4.86;55.82;100161.38;5111158;28;20023;-76
2022/01/16 08:56:15;;;;;;;0.00;0.00;;;;;;;4.88;56.15;100158.50;5107747;28;20398;-74
2022/01/16 08:58:41;;;;;;;0.15;0.15;;;;;;;4.96;55.53;100169.66;5102866;28;20153;-73
2022/01/16 09:01:06;;;;;;;0.00;0.00;;;;;;;4.98;55.32;100158.88;5111171;28;20027;-73
2022/01/16 09:03:32;;;;;;;0.00;0.00;;;;;;;5.08;55.00;100156.56;5097885;28;20032;-72
2022/01/16 09:05:57;;;;;;;0.10;0.10;;;;;;;5.20;54.77;100154.06;5094059;28;20486;-74
2022/01/16 09:08:23;;;;;;;0.25;0.15;;;;;;;5.26;53.94;100155.84;5094952;28;20024;-73
2022/01/16 09:10:48;;;;;;;0.28;0.28;;;;;;;5.32;54.76;100148.88;5095508;28;20119;-73
2022/01/16 09:13:17;;;;;;;0.32;0.32;;;;;;;5.39;54.96;100146.97;5093944;28;20499;-73
2022/01/16 09:15:49;;;;;;;0.00;0.00;;;;;;;5.48;53.92;100144.91;5095597;28;20028;-76
2022/01/16 09:18:16;;;;;;;1.35;1.25;;;;;;;5.55;54.17;100145.66;5107298;28;20042;-73
2022/01/16 09:20:41;;;;;;;0.00;0.00;;;;;;;5.60;53.85;100143.19;5094819;28;20461;-73
2022/01/16 09:23:07;;;;;;;0.00;0.00;;;;;;;5.68;52.78;100138.63;5103214;28;20080;-71
2022/01/16 09:25:33;;;;;;;0.00;0.00;;;;;;;5.61;52.35;100125.41;5114945;28;20032;-72
2022/01/16 09:27:59;;;;;;;0.00;0.00;;;;;;;5.73;52.15;100136.94;5114920;28;20038;-82
2022/01/16 09:30:25;;;;;;;0.00;0.00;;;;;;;5.77;51.48;100129.34;5119340;27;20038;-76
2022/01/16 09:32:51;;;;;;;0.00;0.00;;;;;;;5.79;50.78;100124.66;5134076;27;20467;-75
2022/01/16 09:35:17;;;;;;;0.00;0.00;;;;;;;5.70;47.46;100125.94;5135800;27;20031;-79
2022/01/16 09:37:43;;;;;;;0.10;0.10;;;;;;;5.70;47.77;100117.97;5134147;27;20026;-83
2022/01/16 09:40:10;;;;;;;0.10;0.10;;;;;;;5.69;47.54;100122.50;5133853;27;20044;-74
2022/01/16 09:42:36;;;;;;;0.03;0.03;;;;;;;5.72;47.67;100121.25;5134058;27;20034;-75
2022/01/16 09:45:05;;;;;;;0.00;0.00;;;;;;;5.75;47.56;100121.63;5133897;27;20034;-79
2022/01/16 09:47:30;;;;;;;0.00;0.00;;;;;;;5.70;46.80;100120.63;5133958;27;20542;-75
2022/01/16 09:49:56;;;;;;;0.00;0.00;;;;;;;5.56;46.75;100091.56;5134776;27;20027;-75
2022/01/16 09:52:21;;;;;;;0.80;0.65;;;;;;;5.70;47.58;100102.06;5133715;27;20513;-76
2022/01/16 09:54:47;;;;;;;0.20;0.20;;;;;;;5.69;47.20;100103.09;5134061;27;20031;-76
2022/01/16 09:57:13;;;;;;;0.43;0.40;;;;;;;5.69;46.99;100108.38;5133444;27;20026;-79
2022/01/16 09:59:39;;;;;;;0.00;0.00;;;;;;;5.51;46.51;100091.41;5133671;27;20031;-76
2022/01/16 10:02:06;;;;;;;0.00;0.00;;;;;;;5.62;46.71;100108.47;5116069;27;20039;-71
2022/01/16 10:04:38;;;;;;;0.03;0.03;;;;;;;5.59;47.23;100096.44;5105521;27;20043;-72
2022/01/16 10:07:09;;;;;;;0.00;0.00;;;;;;;5.60;46.46;100095.41;5098634;27;20089;-85
2022/01/16 10:09:36;;;;;;;0.00;0.00;;;;;;;5.60;46.62;100090.09;5111306;27;20050;-84
2022/01/16 10:12:05;;;;;;;0.00;0.00;;;;;;;5.67;46.43;100091.88;5112698;28;20114;-84
2022/01/16 10:14:35;;;;;;;0.95;0.95;;;;;;;5.65;46.38;100084.16;5117113;27;20059;-74
2022/01/16 10:17:09;;;;;;;0.00;0.00;;;;;;;5.63;46.51;100061.50;5116725;27;20024;-73
2022/01/16 10:19:34;;;;;;;0.15;0.15;;;;;;;5.80;47.44;100083.81;5133152;27;20027;-78
2022/01/16 10:22:09;;;;;;;0.00;0.00;;;;;;;5.83;46.57;100085.22;5114830;27;20032;-77
2022/01/16 10:24:35;;;;;;;0.00;0.00;;;;;;;5.86;46.78;100072.31;5118306;27;20087;-78
2022/01/16 10:27:07;;;;;;;0.00;0.00;;;;;;;5.85;46.79;100060.06;5129031;27;20019;-78
2022/01/16 10:29:48;;;;;;;0.00;0.00;;;;;;;5.97;46.62;100070.78;5112608;28;20035;-81
2022/01/16 10:32:19;;;;;;;0.20;0.20;;;;;;;5.92;46.48;100058.16;5126760;27;20049;-77
2022/01/16 10:34:47;;;;;;;0.08;0.08;;;;;;;5.97;46.71;100069.94;5132883;27;20031;-77
2022/01/16 10:37:24;;;;;;;0.00;0.00;;;;;;;5.99;46.90;100070.59;5132809;27;20035;-78
2022/01/16 10:40:00;;;;;;;0.00;0.00;;;;;;;6.02;46.98;100068.31;5133186;27;20019;-77
2022/01/16 10:42:29;;;;;;;0.00;0.00;;;;;;;6.01;47.00;100057.91;5132906;27;20023;-79
2022/01/16 10:45:03;;;;;;;0.38;0.32;;;;;;;6.07;46.56;100057.81;5132537;27;20023;-83
2022/01/16 10:47:35;;;;;;;0.00;0.00;;;;;;;6.01;46.54;100047.28;5111105;27;20067;-81
2022/01/16 10:50:09;;;;;;;0.00;0.00;;;;;;;5.90;47.43;100032.88;5126145;27;20049;-84
2022/01/16 10:53:02;;;;;;;0.00;0.00;;;;;;;6.05;46.95;100041.31;5131500;27;20053;-85
2022/01/16 10:55:41;;;;;;;0.28;0.28;;;;;;;6.00;46.46;100041.16;5124224;27;20039;-82
2022/01/16 10:58:17;;;;;;;0.00;0.00;;;;;;;6.03;46.77;100042.53;5132336;27;20503;-83
2022/01/16 11:00:46;;;;;;;0.65;0.65;;;;;;;6.04;47.22;100033.56;5133417;27;20522;-83
2022/01/16 11:03:15;;;;;;;0.00;0.00;;;;;;;6.04;47.17;100025.59;5132011;27;20470;-79
2022/01/16 11:05:46;;;;;;;0.00;0.00;;;;;;;6.08;46.73;100032.88;5132194;27;20037;-80
2022/01/16 11:08:17;;;;;;;0.47;0.47;;;;;;;6.10;46.67;100035.31;5131904;27;20015;-79
2022/01/16 11:10:44;;;;;;;0.00;0.00;;;;;;;6.13;46.65;100032.22;5111918;28;20497;-80
2022/01/16 11:13:15;;;;;;;0.00;0.00;;;;;;;6.14;46.20;100031.19;5111691;28;20028;-77
2022/01/16 11:15:49;;;;;;;0.00;0.00;;;;;;;6.16;45.90;100030.97;5111688;28;20020;-78
2022/01/16 11:18:16;;;;;;;0.00;0.00;;;;;;;6.08;46.27;100030.22;5111336;28;20160;-89
2022/01/16 11:20:51;;;;;;;0.10;0.10;;;;;;;6.12;46.17;100029.81;5099125;28;20032;-79
2022/01/16 11:23:30;;;;;;;0.00;0.00;;;;;;;6.11;45.96;100026.31;5094741;28;20023;-90
2022/01/16 11:26:00;;;;;;;;;;;;;;;6.19;45.06;100019.88;5110094;27;20038;-90
2022/01/16 11:28:26;;;;;;;0.00;0.00;;;;;;;6.19;45.33;100023.38;5111754;27;19912;-85
2022/01/16 11:30:54;;;;;;;1.52;1.25;;;;;;;6.14;45.32;100004.66;5130564;27;20023;-74
2022/01/16 11:33:22;;;;;;;0.00;0.00;;;;;;;6.24;45.79;100028.03;5129853;27;20027;-78
2022/01/16 11:35:56;;;;;;;0.00;0.00;;;;;;;6.31;45.79;100017.31;5111455;28;20077;-74
2022/01/16 11:38:27;;;;;;;0.00;0.00;;;;;;;6.36;45.35;100004.97;5112018;27;20111;-77
2022/01/16 11:40:53;;;;;;;0.00;0.00;;;;;;;6.41;44.55;99999.00;5105634;28;20023;-74
2022/01/16 11:43:36;;;;;;;0.00;0.00;;;;;;;6.45;45.09;100000.16;5109622;28;20031;-75
2022/01/16 11:46:01;;;;;;;0.00;0.00;;;;;;;6.53;44.44;100001.69;5092633;28;20403;-75
2022/01/16 11:48:36;;;;;;;0.00;0.00;;;;;;;6.61;44.37;100003.22;5090633;28;20028;-76
2022/01/16 11:51:25;;;;;;;0.00;0.00;;;;;;;6.57;43.68;99974.44;5090232;28;20110;-75
2022/01/16 11:54:15;;;;;;;0.60;0.60;;;;;;;6.75;44.20;99991.38;5090448;28;20411;-75
2022/01/16 11:56:40;;;;;;;0.00;0.00;;;;;;;6.77;43.26;99991.13;5090474;28;20051;-75
2022/01/16 11:59:24;;;;;;;0.00;0.00;;;;;;;6.72;43.08;99974.00;5091161;28;20407;-76
2022/01/16 12:02:08;;;;;;;0.00;0.00;;;;;;;6.84;44.27;99997.16;5090525;28;20031;-76
2022/01/16 12:04:33;;;;;;;0.00;0.00;;;;;;;6.85;43.81;99996.94;5091900;28;20020;-75
2022/01/16 12:07:15;;;;;;;0.00;0.00;;;;;;;6.87;43.60;99997.53;5090034;28;20039;-75
2022/01/16 12:12:12;;;;;;;0.13;0.13;;;;;;;6.88;42.77;99985.03;5090960;28;20028;-75
2022/01/16 12:15:07;;;;;;;0.00;0.00;;;;;;;6.88;42.77;99985.84;5090176;28;20035;-76
2022/01/16 12:17:40;;;;;;;0.00;0.00;;;;;;;6.83;42.91;99967.09;5079522;28;20024;-76
2022/01/16 12:20:22;;;;;;;0.30;0.30;;;;;;;6.89;42.93;99979.47;5089975;28;20060;-74
2022/01/16 12:23:00;;;;;;;0.00;0.00;;;;;;;6.83;42.94;99960.97;5089524;28;20081;-76
2022/01/16 12:25:45;;;;;;;0.00;0.00;;;;;;;6.88;43.60;99945.16;5090940;28;20107;-75
2022/01/16 12:28:15;;;;;;;0.15;0.15;;;;;;;6.80;42.89;99933.00;5091011;28;20020;-75